sensor_id;sensor_type;location;lat;lon;timestamp;P1;durP1;ratioP1;P2;durP2;ratioP2
53521;SDS011;39398;48.382;9.802;2023-06-14T00:02:06;6.15;;;3.50;;
53521;SDS011;39398;48.382;9.802;2023-06-14T00:07:08;6.22;;;3.30;;
53521;SDS011;39398;48.382;9.802;2023-06-14T00:12:12;6.93;;;3.15;;
53521;SDS011;39398;48.382;9.802;2023-06-14T00:17:14;5.97;;;3.45;;
53521;SDS011;39398;48.382;9.802;2023-06-14T00:22:16;7.28;;;3.63;;
53521;SDS011;39398;48.382;9.802;2023-06-14T00:27:19;4.95;;;3.42;;
53521;SDS011;39398;48.382;9.802;2023-06-14T00:32:21;4.72;;;3.35;;
53521;SDS011;39398;48.382;9.802;2023-06-14T00:37:23;6.93;;;3.47;;
53521;SDS011;39398;48.382;9.802;2023-06-14T00:42:26;7.35;;;3.70;;
53521;SDS011;39398;48.382;9.802;2023-06-14T00:47:29;5.45;;;3.38;;
53521;SDS011;39398;48.382;9.802;2023-06-14T00:52:30;5.32;;;3.60;;
53521;SDS011;39398;48.382;9.802;2023-06-14T00:57:33;5.38;;;3.67;;
53521;SDS011;39398;48.382;9.802;2023-06-14T01:02:36;5.53;;;3.90;;
53521;SDS011;39398;48.382;9.802;2023-06-14T01:07:49;8.25;;;4.00;;
53521;SDS011;39398;48.382;9.802;2023-06-14T01:13:05;6.85;;;3.53;;
53521;SDS011;39398;48.382;9.802;2023-06-14T01:18:12;6.38;;;3.88;;
53521;SDS011;39398;48.382;9.802;2023-06-14T01:23:15;7.13;;;3.90;;
53521;SDS011;39398;48.382;9.802;2023-06-14T01:28:17;4.88;;;3.67;;
53521;SDS011;39398;48.382;9.802;2023-06-14T01:33:21;8.10;;;3.58;;
53521;SDS011;39398;48.382;9.802;2023-06-14T01:38:26;4.75;;;3.60;;
53521;SDS011;39398;48.382;9.802;2023-06-14T01:43:28;6.70;;;3.78;;
53521;SDS011;39398;48.382;9.802;2023-06-14T01:48:32;4.40;;;3.50;;
53521;SDS011;39398;48.382;9.802;2023-06-14T01:53:35;7.25;;;3.60;;
53521;SDS011;39398;48.382;9.802;2023-06-14T01:58:37;6.95;;;3.78;;
53521;SDS011;39398;48.382;9.802;2023-06-14T02:03:38;7.50;;;3.35;;
53521;SDS011;39398;48.382;9.802;2023-06-14T02:08:41;8.35;;;4.13;;
53521;SDS011;39398;48.382;9.802;2023-06-14T02:13:43;5.90;;;4.07;;
53521;SDS011;39398;48.382;9.802;2023-06-14T02:18:45;7.03;;;4.05;;
53521;SDS011;39398;48.382;9.802;2023-06-14T02:23:48;6.43;;;4.40;;
53521;SDS011;39398;48.382;9.802;2023-06-14T02:28:50;6.78;;;4.20;;
53521;SDS011;39398;48.382;9.802;2023-06-14T02:33:51;5.85;;;4.00;;
53521;SDS011;39398;48.382;9.802;2023-06-14T02:38:54;7.78;;;4.00;;
53521;SDS011;39398;48.382;9.802;2023-06-14T02:43:56;6.80;;;4.55;;
53521;SDS011;39398;48.382;9.802;2023-06-14T02:48:58;7.28;;;3.83;;
53521;SDS011;39398;48.382;9.802;2023-06-14T02:54:01;5.43;;;4.20;;
53521;SDS011;39398;48.382;9.802;2023-06-14T02:59:03;7.07;;;4.20;;
53521;SDS011;39398;48.382;9.802;2023-06-14T03:04:04;7.32;;;4.07;;
53521;SDS011;39398;48.382;9.802;2023-06-14T03:09:07;7.57;;;4.50;;
53521;SDS011;39398;48.382;9.802;2023-06-14T03:14:09;5.20;;;4.13;;
53521;SDS011;39398;48.382;9.802;2023-06-14T03:19:11;6.35;;;3.88;;
53521;SDS011;39398;48.382;9.802;2023-06-14T03:24:14;6.28;;;4.07;;
53521;SDS011;39398;48.382;9.802;2023-06-14T03:29:15;7.82;;;4.55;;
53521;SDS011;39398;48.382;9.802;2023-06-14T03:34:17;6.70;;;4.00;;
53521;SDS011;39398;48.382;9.802;2023-06-14T03:39:20;6.50;;;4.10;;
53521;SDS011;39398;48.382;9.802;2023-06-14T03:44:22;7.40;;;4.25;;
53521;SDS011;39398;48.382;9.802;2023-06-14T03:49:24;5.57;;;4.22;;
53521;SDS011;39398;48.382;9.802;2023-06-14T03:54:27;6.00;;;4.20;;
53521;SDS011;39398;48.382;9.802;2023-06-14T03:59:48;7.15;;;4.57;;
53521;SDS011;39398;48.382;9.802;2023-06-14T04:04:50;8.90;;;4.90;;
53521;SDS011;39398;48.382;9.802;2023-06-14T04:09:53;7.50;;;4.30;;
53521;SDS011;39398;48.382;9.802;2023-06-14T04:14:55;5.25;;;4.25;;
53521;SDS011;39398;48.382;9.802;2023-06-14T04:20:05;4.55;;;4.07;;
53521;SDS011;39398;48.382;9.802;2023-06-14T04:25:09;5.72;;;4.00;;
53521;SDS011;39398;48.382;9.802;2023-06-14T04:30:11;5.78;;;3.90;;
53521;SDS011;39398;48.382;9.802;2023-06-14T04:35:13;7.07;;;4.40;;
53521;SDS011;39398;48.382;9.802;2023-06-14T04:40:17;6.55;;;4.00;;
53521;SDS011;39398;48.382;9.802;2023-06-14T04:45:19;5.28;;;4.40;;
53521;SDS011;39398;48.382;9.802;2023-06-14T04:50:20;5.65;;;4.32;;
53521;SDS011;39398;48.382;9.802;2023-06-14T04:55:23;6.20;;;4.22;;
53521;SDS011;39398;48.382;9.802;2023-06-14T05:00:25;4.68;;;3.47;;
53521;SDS011;39398;48.382;9.802;2023-06-14T05:05:26;6.07;;;3.80;;
53521;SDS011;39398;48.382;9.802;2023-06-14T05:10:29;5.70;;;3.70;;
53521;SDS011;39398;48.382;9.802;2023-06-14T05:15:31;6.60;;;3.90;;
53521;SDS011;39398;48.382;9.802;2023-06-14T05:20:33;6.68;;;3.60;;
53521;SDS011;39398;48.382;9.802;2023-06-14T05:25:36;4.32;;;2.88;;
53521;SDS011;39398;48.382;9.802;2023-06-14T05:30:38;5.68;;;3.47;;
53521;SDS011;39398;48.382;9.802;2023-06-14T05:35:40;5.43;;;3.00;;
53521;SDS011;39398;48.382;9.802;2023-06-14T05:40:43;4.50;;;2.60;;
53521;SDS011;39398;48.382;9.802;2023-06-14T05:45:44;5.30;;;2.88;;
53521;SDS011;39398;48.382;9.802;2023-06-14T05:50:46;3.85;;;2.83;;
53521;SDS011;39398;48.382;9.802;2023-06-14T05:55:49;2.75;;;2.20;;
53521;SDS011;39398;48.382;9.802;2023-06-14T06:00:51;5.43;;;2.58;;
53521;SDS011;39398;48.382;9.802;2023-06-14T06:05:53;4.95;;;3.15;;
53521;SDS011;39398;48.382;9.802;2023-06-14T06:10:56;5.68;;;2.70;;
53521;SDS011;39398;48.382;9.802;2023-06-14T06:15:57;12.45;;;3.17;;
53521;SDS011;39398;48.382;9.802;2023-06-14T06:21:00;5.75;;;3.25;;
53521;SDS011;39398;48.382;9.802;2023-06-14T06:26:04;5.07;;;3.55;;
53521;SDS011;39398;48.382;9.802;2023-06-14T06:31:05;7.60;;;3.65;;
53521;SDS011;39398;48.382;9.802;2023-06-14T06:36:07;8.77;;;3.65;;
53521;SDS011;39398;48.382;9.802;2023-06-14T06:41:12;7.88;;;3.63;;
53521;SDS011;39398;48.382;9.802;2023-06-14T06:46:14;7.03;;;3.60;;
53521;SDS011;39398;48.382;9.802;2023-06-14T06:51:15;10.50;;;3.88;;
53521;SDS011;39398;48.382;9.802;2023-06-14T06:56:18;8.93;;;4.15;;
53521;SDS011;39398;48.382;9.802;2023-06-14T07:01:20;7.30;;;4.45;;
53521;SDS011;39398;48.382;9.802;2023-06-14T07:06:22;10.10;;;4.00;;
53521;SDS011;39398;48.382;9.802;2023-06-14T07:11:25;14.10;;;4.20;;
53521;SDS011;39398;48.382;9.802;2023-06-14T07:16:26;16.40;;;4.18;;
53521;SDS011;39398;48.382;9.802;2023-06-14T07:21:28;7.15;;;3.72;;
53521;SDS011;39398;48.382;9.802;2023-06-14T07:26:31;9.27;;;4.07;;
53521;SDS011;39398;48.382;9.802;2023-06-14T07:31:33;6.03;;;3.70;;
53521;SDS011;39398;48.382;9.802;2023-06-14T07:36:34;6.97;;;3.38;;
53521;SDS011;39398;48.382;9.802;2023-06-14T07:41:37;4.93;;;2.75;;
53521;SDS011;39398;48.382;9.802;2023-06-14T07:46:39;5.18;;;2.75;;
53521;SDS011;39398;48.382;9.802;2023-06-14T07:51:41;10.70;;;3.45;;
53521;SDS011;39398;48.382;9.802;2023-06-14T07:56:45;3.78;;;2.78;;
53521;SDS011;39398;48.382;9.802;2023-06-14T08:01:46;8.38;;;4.00;;
53521;SDS011;39398;48.382;9.802;2023-06-14T08:06:48;9.38;;;3.83;;
53521;SDS011;39398;48.382;9.802;2023-06-14T08:11:51;7.70;;;3.67;;
53521;SDS011;39398;48.382;9.802;2023-06-14T08:16:53;6.70;;;3.55;;
53521;SDS011;39398;48.382;9.802;2023-06-14T08:21:54;9.10;;;3.72;;
53521;SDS011;39398;48.382;9.802;2023-06-14T08:26:57;5.95;;;3.05;;
53521;SDS011;39398;48.382;9.802;2023-06-14T08:31:59;4.38;;;3.67;;
53521;SDS011;39398;48.382;9.802;2023-06-14T08:37:00;5.38;;;3.60;;
53521;SDS011;39398;48.382;9.802;2023-06-14T08:42:04;6.65;;;2.92;;
53521;SDS011;39398;48.382;9.802;2023-06-14T08:47:17;7.28;;;3.22;;
53521;SDS011;39398;48.382;9.802;2023-06-14T08:52:19;14.45;;;4.50;;
53521;SDS011;39398;48.382;9.802;2023-06-14T08:57:24;2.35;;;2.00;;
53521;SDS011;39398;48.382;9.802;2023-06-14T09:02:27;4.78;;;2.92;;
53521;SDS011;39398;48.382;9.802;2023-06-14T09:07:29;3.88;;;2.65;;
53521;SDS011;39398;48.382;9.802;2023-06-14T09:12:32;7.65;;;3.13;;
53521;SDS011;39398;48.382;9.802;2023-06-14T09:17:34;9.13;;;3.30;;
53521;SDS011;39398;48.382;9.802;2023-06-14T09:22:36;5.38;;;2.95;;
53521;SDS011;39398;48.382;9.802;2023-06-14T09:27:39;6.97;;;3.28;;
53521;SDS011;39398;48.382;9.802;2023-06-14T09:32:41;8.60;;;3.42;;
53521;SDS011;39398;48.382;9.802;2023-06-14T09:37:43;5.68;;;3.22;;
53521;SDS011;39398;48.382;9.802;2023-06-14T09:42:46;3.88;;;2.70;;
53521;SDS011;39398;48.382;9.802;2023-06-14T09:47:49;4.32;;;3.50;;
53521;SDS011;39398;48.382;9.802;2023-06-14T09:53:07;6.65;;;3.70;;
53521;SDS011;39398;48.382;9.802;2023-06-14T09:58:12;7.32;;;3.80;;
53521;SDS011;39398;48.382;9.802;2023-06-14T10:03:19;5.22;;;3.30;;
53521;SDS011;39398;48.382;9.802;2023-06-14T10:08:25;12.52;;;3.70;;
53521;SDS011;39398;48.382;9.802;2023-06-14T10:13:31;6.28;;;3.45;;
53521;SDS011;39398;48.382;9.802;2023-06-14T10:18:36;8.38;;;3.30;;
53521;SDS011;39398;48.382;9.802;2023-06-14T10:23:46;5.25;;;3.55;;
53521;SDS011;39398;48.382;9.802;2023-06-14T10:28:58;4.80;;;3.10;;
53521;SDS011;39398;48.382;9.802;2023-06-14T10:34:01;6.43;;;3.40;;
53521;SDS011;39398;48.382;9.802;2023-06-14T10:39:06;4.72;;;3.63;;
53521;SDS011;39398;48.382;9.802;2023-06-14T10:49:39;4.97;;;3.35;;
53521;SDS011;39398;48.382;9.802;2023-06-14T11:00:11;4.55;;;2.30;;
53521;SDS011;39398;48.382;9.802;2023-06-14T11:05:14;4.95;;;3.10;;
53521;SDS011;39398;48.382;9.802;2023-06-14T11:10:20;6.45;;;3.17;;
53521;SDS011;39398;48.382;9.802;2023-06-14T11:15:33;6.93;;;3.30;;
53521;SDS011;39398;48.382;9.802;2023-06-14T11:20:36;4.03;;;3.13;;
53521;SDS011;39398;48.382;9.802;2023-06-14T11:25:38;5.60;;;3.28;;
53521;SDS011;39398;48.382;9.802;2023-06-14T11:30:41;5.75;;;3.03;;
53521;SDS011;39398;48.382;9.802;2023-06-14T11:35:43;3.10;;;2.53;;
53521;SDS011;39398;48.382;9.802;2023-06-14T11:40:44;5.43;;;2.80;;
53521;SDS011;39398;48.382;9.802;2023-06-14T11:45:49;4.57;;;2.20;;
53521;SDS011;39398;48.382;9.802;2023-06-14T11:51:08;4.50;;;2.83;;
53521;SDS011;39398;48.382;9.802;2023-06-14T11:56:09;3.95;;;3.25;;
53521;SDS011;39398;48.382;9.802;2023-06-14T12:01:15;5.68;;;3.45;;
53521;SDS011;39398;48.382;9.802;2023-06-14T12:06:25;5.20;;;3.25;;
53521;SDS011;39398;48.382;9.802;2023-06-14T12:11:31;5.90;;;3.00;;
53521;SDS011;39398;48.382;9.802;2023-06-14T12:16:36;8.00;;;3.20;;
53521;SDS011;39398;48.382;9.802;2023-06-14T12:21:40;8.07;;;2.63;;
53521;SDS011;39398;48.382;9.802;2023-06-14T12:26:42;3.92;;;2.30;;
53521;SDS011;39398;48.382;9.802;2023-06-14T12:31:45;8.55;;;3.17;;
53521;SDS011;39398;48.382;9.802;2023-06-14T12:36:47;4.78;;;3.20;;
53521;SDS011;39398;48.382;9.802;2023-06-14T12:41:48;4.43;;;2.72;;
53521;SDS011;39398;48.382;9.802;2023-06-14T12:46:51;5.28;;;3.20;;
53521;SDS011;39398;48.382;9.802;2023-06-14T12:51:53;4.85;;;2.97;;
53521;SDS011;39398;48.382;9.802;2023-06-14T12:56:55;5.10;;;3.30;;
53521;SDS011;39398;48.382;9.802;2023-06-14T13:01:58;4.32;;;3.08;;
53521;SDS011;39398;48.382;9.802;2023-06-14T13:07:01;12.13;;;2.95;;
53521;SDS011;39398;48.382;9.802;2023-06-14T13:12:03;5.93;;;2.20;;
53521;SDS011;39398;48.382;9.802;2023-06-14T13:17:07;5.43;;;2.25;;
53521;SDS011;39398;48.382;9.802;2023-06-14T13:22:09;3.13;;;2.35;;
53521;SDS011;39398;48.382;9.802;2023-06-14T13:27:11;7.50;;;3.35;;
53521;SDS011;39398;48.382;9.802;2023-06-14T13:32:14;4.55;;;3.15;;
53521;SDS011;39398;48.382;9.802;2023-06-14T13:37:16;5.75;;;3.25;;
53521;SDS011;39398;48.382;9.802;2023-06-14T13:42:18;5.68;;;3.22;;
53521;SDS011;39398;48.382;9.802;2023-06-14T13:47:21;4.60;;;3.30;;
53521;SDS011;39398;48.382;9.802;2023-06-14T13:52:22;4.50;;;2.50;;
53521;SDS011;39398;48.382;9.802;2023-06-14T13:57:24;10.65;;;2.38;;
53521;SDS011;39398;48.382;9.802;2023-06-14T14:02:27;5.13;;;2.60;;
53521;SDS011;39398;48.382;9.802;2023-06-14T14:07:29;6.13;;;2.42;;
53521;SDS011;39398;48.382;9.802;2023-06-14T14:12:30;5.40;;;3.13;;
53521;SDS011;39398;48.382;9.802;2023-06-14T14:17:33;6.70;;;3.42;;
53521;SDS011;39398;48.382;9.802;2023-06-14T14:22:35;6.70;;;3.15;;
53521;SDS011;39398;48.382;9.802;2023-06-14T14:27:37;6.63;;;3.60;;
53521;SDS011;39398;48.382;9.802;2023-06-14T14:32:40;3.97;;;3.17;;
53521;SDS011;39398;48.382;9.802;2023-06-14T14:37:41;7.40;;;5.38;;
53521;SDS011;39398;48.382;9.802;2023-06-14T14:42:43;5.65;;;3.30;;
53521;SDS011;39398;48.382;9.802;2023-06-14T14:47:46;4.93;;;2.03;;
53521;SDS011;39398;48.382;9.802;2023-06-14T14:52:48;4.72;;;2.92;;
53521;SDS011;39398;48.382;9.802;2023-06-14T14:57:50;2.45;;;2.13;;
53521;SDS011;39398;48.382;9.802;2023-06-14T15:02:53;3.38;;;2.53;;
53521;SDS011;39398;48.382;9.802;2023-06-14T15:07:54;3.55;;;2.88;;
53521;SDS011;39398;48.382;9.802;2023-06-14T15:12:56;4.68;;;3.00;;
53521;SDS011;39398;48.382;9.802;2023-06-14T15:17:59;3.95;;;2.95;;
53521;SDS011;39398;48.382;9.802;2023-06-14T15:23:01;3.28;;;1.65;;
53521;SDS011;39398;48.382;9.802;2023-06-14T15:28:03;4.55;;;2.90;;
53521;SDS011;39398;48.382;9.802;2023-06-14T15:33:06;3.90;;;2.63;;
53521;SDS011;39398;48.382;9.802;2023-06-14T15:38:08;6.15;;;2.88;;
53521;SDS011;39398;48.382;9.802;2023-06-14T15:43:09;4.63;;;3.40;;
53521;SDS011;39398;48.382;9.802;2023-06-14T15:48:12;3.55;;;2.50;;
53521;SDS011;39398;48.382;9.802;2023-06-14T15:53:14;4.30;;;2.70;;
53521;SDS011;39398;48.382;9.802;2023-06-14T15:58:16;4.18;;;3.10;;
53521;SDS011;39398;48.382;9.802;2023-06-14T16:03:19;4.63;;;2.42;;
53521;SDS011;39398;48.382;9.802;2023-06-14T16:08:21;3.10;;;2.13;;
53521;SDS011;39398;48.382;9.802;2023-06-14T16:13:41;6.10;;;3.17;;
53521;SDS011;39398;48.382;9.802;2023-06-14T16:18:44;5.80;;;2.58;;
53521;SDS011;39398;48.382;9.802;2023-06-14T16:23:46;5.13;;;2.58;;
53521;SDS011;39398;48.382;9.802;2023-06-14T16:28:48;4.30;;;1.90;;
53521;SDS011;39398;48.382;9.802;2023-06-14T16:33:51;7.80;;;2.83;;
53521;SDS011;39398;48.382;9.802;2023-06-14T16:38:53;3.15;;;2.30;;
53521;SDS011;39398;48.382;9.802;2023-06-14T16:43:54;4.38;;;2.38;;
53521;SDS011;39398;48.382;9.802;2023-06-14T16:48:57;2.80;;;2.60;;
53521;SDS011;39398;48.382;9.802;2023-06-14T16:53:59;5.43;;;3.08;;
53521;SDS011;39398;48.382;9.802;2023-06-14T16:59:01;7.82;;;3.03;;
53521;SDS011;39398;48.382;9.802;2023-06-14T17:04:04;3.00;;;2.35;;
53521;SDS011;39398;48.382;9.802;2023-06-14T17:09:06;2.58;;;2.30;;
53521;SDS011;39398;48.382;9.802;2023-06-14T17:14:08;4.50;;;2.70;;
53521;SDS011;39398;48.382;9.802;2023-06-14T17:19:11;3.05;;;2.40;;
53521;SDS011;39398;48.382;9.802;2023-06-14T17:24:13;3.40;;;2.20;;
53521;SDS011;39398;48.382;9.802;2023-06-14T17:29:26;4.57;;;2.90;;
53521;SDS011;39398;48.382;9.802;2023-06-14T17:34:29;3.58;;;2.58;;
53521;SDS011;39398;48.382;9.802;2023-06-14T17:39:31;2.95;;;2.40;;
53521;SDS011;39398;48.382;9.802;2023-06-14T17:44:33;5.22;;;2.88;;
53521;SDS011;39398;48.382;9.802;2023-06-14T17:49:36;4.32;;;2.03;;
53521;SDS011;39398;48.382;9.802;2023-06-14T17:54:37;4.20;;;3.40;;
53521;SDS011;39398;48.382;9.802;2023-06-14T17:59:39;8.88;;;2.65;;
53521;SDS011;39398;48.382;9.802;2023-06-14T18:04:42;6.13;;;3.03;;
53521;SDS011;39398;48.382;9.802;2023-06-14T18:09:44;3.13;;;2.50;;
53521;SDS011;39398;48.382;9.802;2023-06-14T18:14:46;6.13;;;2.97;;
53521;SDS011;39398;48.382;9.802;2023-06-14T18:19:49;4.75;;;2.90;;
53521;SDS011;39398;48.382;9.802;2023-06-14T18:24:50;4.63;;;3.35;;
53521;SDS011;39398;48.382;9.802;2023-06-14T18:29:52;4.13;;;3.25;;
53521;SDS011;39398;48.382;9.802;2023-06-14T18:34:55;4.07;;;2.92;;
53521;SDS011;39398;48.382;9.802;2023-06-14T18:39:57;5.82;;;3.13;;
53521;SDS011;39398;48.382;9.802;2023-06-14T18:44:59;5.03;;;3.00;;
53521;SDS011;39398;48.382;9.802;2023-06-14T18:50:02;7.22;;;2.90;;
53521;SDS011;39398;48.382;9.802;2023-06-14T18:55:04;5.50;;;2.72;;
53521;SDS011;39398;48.382;9.802;2023-06-14T19:00:06;4.97;;;3.30;;
53521;SDS011;39398;48.382;9.802;2023-06-14T19:05:10;6.07;;;3.30;;
53521;SDS011;39398;48.382;9.802;2023-06-14T19:10:12;4.70;;;3.22;;
53521;SDS011;39398;48.382;9.802;2023-06-14T19:15:13;4.35;;;3.40;;
53521;SDS011;39398;48.382;9.802;2023-06-14T19:20:17;5.13;;;3.40;;
53521;SDS011;39398;48.382;9.802;2023-06-14T19:25:19;3.72;;;3.00;;
53521;SDS011;39398;48.382;9.802;2023-06-14T19:30:21;5.65;;;3.60;;
53521;SDS011;39398;48.382;9.802;2023-06-14T19:35:24;5.15;;;3.85;;
53521;SDS011;39398;48.382;9.802;2023-06-14T19:40:26;4.13;;;3.50;;
53521;SDS011;39398;48.382;9.802;2023-06-14T19:45:28;3.95;;;3.40;;
53521;SDS011;39398;48.382;9.802;2023-06-14T19:50:32;6.45;;;3.30;;
53521;SDS011;39398;48.382;9.802;2023-06-14T19:55:34;5.65;;;3.30;;
53521;SDS011;39398;48.382;9.802;2023-06-14T20:00:36;6.10;;;3.65;;
53521;SDS011;39398;48.382;9.802;2023-06-14T20:05:39;7.55;;;3.58;;
53521;SDS011;39398;48.382;9.802;2023-06-14T20:10:41;4.45;;;3.42;;
53521;SDS011;39398;48.382;9.802;2023-06-14T20:15:42;5.50;;;3.53;;
53521;SDS011;39398;48.382;9.802;2023-06-14T20:20:45;4.20;;;3.45;;
53521;SDS011;39398;48.382;9.802;2023-06-14T20:25:50;5.43;;;3.38;;
53521;SDS011;39398;48.382;9.802;2023-06-14T20:30:53;6.55;;;3.42;;
53521;SDS011;39398;48.382;9.802;2023-06-14T20:35:56;11.05;;;4.10;;
53521;SDS011;39398;48.382;9.802;2023-06-14T20:40:57;7.38;;;3.83;;
53521;SDS011;39398;48.382;9.802;2023-06-14T20:45:59;8.13;;;3.55;;
53521;SDS011;39398;48.382;9.802;2023-06-14T20:51:04;5.43;;;3.50;;
53521;SDS011;39398;48.382;9.802;2023-06-14T20:56:05;6.78;;;3.95;;
53521;SDS011;39398;48.382;9.802;2023-06-14T21:01:07;7.72;;;3.75;;
53521;SDS011;39398;48.382;9.802;2023-06-14T21:06:10;7.65;;;3.50;;
53521;SDS011;39398;48.382;9.802;2023-06-14T21:11:12;8.88;;;3.55;;
53521;SDS011;39398;48.382;9.802;2023-06-14T21:16:14;7.35;;;4.03;;
53521;SDS011;39398;48.382;9.802;2023-06-14T21:21:17;7.30;;;3.47;;
53521;SDS011;39398;48.382;9.802;2023-06-14T21:26:18;4.78;;;3.67;;
53521;SDS011;39398;48.382;9.802;2023-06-14T21:31:20;6.90;;;4.10;;
53521;SDS011;39398;48.382;9.802;2023-06-14T21:36:23;10.07;;;3.78;;
53521;SDS011;39398;48.382;9.802;2023-06-14T21:41:25;5.40;;;3.83;;
53521;SDS011;39398;48.382;9.802;2023-06-14T21:46:29;5.82;;;3.83;;
53521;SDS011;39398;48.382;9.802;2023-06-14T21:51:32;4.97;;;3.55;;
53521;SDS011;39398;48.382;9.802;2023-06-14T21:56:34;9.63;;;4.05;;
53521;SDS011;39398;48.382;9.802;2023-06-14T22:01:35;9.60;;;4.38;;
53521;SDS011;39398;48.382;9.802;2023-06-14T22:06:38;10.25;;;4.50;;
53521;SDS011;39398;48.382;9.802;2023-06-14T22:11:40;8.10;;;4.00;;
53521;SDS011;39398;48.382;9.802;2023-06-14T22:16:43;6.22;;;4.30;;
53521;SDS011;39398;48.382;9.802;2023-06-14T22:21:46;5.55;;;4.00;;
53521;SDS011;39398;48.382;9.802;2023-06-14T22:26:47;5.95;;;4.07;;
53521;SDS011;39398;48.382;9.802;2023-06-14T22:31:49;6.47;;;4.30;;
53521;SDS011;39398;48.382;9.802;2023-06-14T22:36:52;6.38;;;3.95;;
53521;SDS011;39398;48.382;9.802;2023-06-14T22:41:54;5.18;;;3.53;;
53521;SDS011;39398;48.382;9.802;2023-06-14T22:46:55;5.28;;;3.85;;
53521;SDS011;39398;48.382;9.802;2023-06-14T22:51:59;8.15;;;4.35;;
53521;SDS011;39398;48.382;9.802;2023-06-14T22:57:00;6.20;;;4.53;;
53521;SDS011;39398;48.382;9.802;2023-06-14T23:02:02;12.55;;;4.38;;
53521;SDS011;39398;48.382;9.802;2023-06-14T23:07:05;6.60;;;4.40;;
53521;SDS011;39398;48.382;9.802;2023-06-14T23:12:07;6.32;;;3.90;;
53521;SDS011;39398;48.382;9.802;2023-06-14T23:17:10;7.05;;;4.50;;
53521;SDS011;39398;48.382;9.802;2023-06-14T23:22:13;4.43;;;3.70;;
53521;SDS011;39398;48.382;9.802;2023-06-14T23:27:14;5.70;;;4.10;;
53521;SDS011;39398;48.382;9.802;2023-06-14T23:32:16;6.07;;;4.50;;
53521;SDS011;39398;48.382;9.802;2023-06-14T23:37:19;7.80;;;4.15;;
53521;SDS011;39398;48.382;9.802;2023-06-14T23:42:21;8.00;;;4.70;;
53521;SDS011;39398;48.382;9.802;2023-06-14T23:47:22;5.75;;;3.97;;
53521;SDS011;39398;48.382;9.802;2023-06-14T23:52:28;11.85;;;4.53;;
53521;SDS011;39398;48.382;9.802;2023-06-14T23:57:30;8.23;;;4.90;;
